Bonnie, Illinois
Current Conditions -  °F | °C
As of 2:55 AM on Saturday 29 Nov 2014 (Local Time) from KMVN Reporting Station
Clear Clear  
Wind Chill: 33°   Ceiling: Unl
Heat Index: 41°   Visibility: 10mi
Dew Point: 30°   Wind: 14mph
Humidity: 65%   Direction: 180°S
Pressure: 29.92"   Gusts: NA
Location:  38.2°N, 88.9°W
Report Text: KMVN 290855Z AUTO 18012KT 10SM CLR 05/M01 A2992 RMK AO1 57014
Loading
Personal Weather Stations






























Interactive Weather Map New forecast layout! Learn more

10-Day Weather Forecast

Advertisements
Track Severe Weather on mobile